Tyndall, SD (57066)

11:39 PM CDT on September 17, 2014 (GMT -0500)
Tabor - Bares | Change Station
CLOSE
Current Station
Personal Weather Station
Location: Tabor, SD
Elevation: 1355 ft
Nearby Weather Stations

Elev 1355 ft 42.95 °N, 97.66 °W | Updated 5 seconds ago

Partly Cloudy
Partly Cloudy
62.4 °F
Feels Like 62.4 °F
N
0.9
Wind Variable Wind from ENE
Gusts 2.0 mph

Today
High -- | Low -- °F
--% Chance of Precip.
Yesterday
High -- | Low -- °F
Precip. -- in
7:13 AM 7:37 PM
Waning Crescent, 30% visible
Pressure 29.98 in
Visibility 10.0 miles
Clouds Clear
Dew Point 56 °F
Humidity 81%
Rainfall 0.00 in
Snow Depth 0 in
UV 0 out of 12
Pollen 4.70 out of 12
Air Quality Not available.
Flu Activity Not available.
METAR KYKN 180435Z AUTO 00000KT 10SM CLR 16/12 A2998 RMK AO1

More Conditions Fewer Conditions

Pressure 29.98 in
Visibility 10.0 miles
Clouds Clear
Dew Point 56 °F
Humidity 81%
Rainfall 0.00 in
Snow Depth 0 in
UV 0 out of 12
Pollen 4.70 out of 12
Air Quality Not available.
Flu Activity Not available.
METAR KYKN 180435Z AUTO 00000KT 10SM CLR 16/12 A2998 RMK AO1

More Conditions Fewer Conditions

10-Day Weather Forecast

Almanac

Astronomy

Sep. 17, 2014 Rise Set
Actual Time 7:13 AM CDT 7:37 PM CDT
Civil Twilight 6:44 AM CDT 8:06 PM CDT
Nautical Twilight 6:11 AM CDT 8:39 PM CDT
Astronomical Twilight 5:36 AM CDT 9:13 PM CDT
Moon 1:08 AM CDT (9/17) 3:54 PM CDT (9/17)
Length of Visible Light 13h 21m
Length of Day
12h 24m
Tomorrow will be 2m 54s shorter.
Waning Crescent, 30% of the Moon is Illuminated
Sep 18
Waning Crescent
Sep 24
New
Oct 1
First Quarter
Oct 8
Full
Oct 15
Last Quarter

Yesterday's Extremes

State Highs State Lows

Community

WunderPhotos

Upload Photos

1,754,295 photos uploaded!

Nearby

Snow Depth

Station Depth Elevation
Blind Park 0 in 6890 ft

Earthquake Activity

City Distance Mag. Time & Date
No recent earthquake activity has been reported nearby.
Minimum magnitude displayed is 2.5.

Coastal Water Temperatures

Place Temperature
No Stations Reporting

Nearby Weather Stations